createdAt,value
2022-11-13T00:00:25.461Z,11.48
2022-11-13T00:01:45.725Z,11.49
2022-11-13T00:03:05.977Z,11.51
2022-11-13T00:04:26.117Z,11.50
2022-11-13T00:05:46.247Z,11.51
2022-11-13T00:07:06.373Z,11.51
2022-11-13T00:08:27.165Z,11.50
2022-11-13T00:09:47.470Z,11.51
2022-11-13T00:11:18.541Z,11.47
2022-11-13T00:12:38.556Z,11.45
2022-11-13T00:13:58.742Z,11.46
2022-11-13T00:15:19.031Z,11.47
2022-11-13T00:16:38.974Z,11.47
2022-11-13T00:18:02.902Z,11.46
2022-11-13T00:19:22.798Z,11.47
2022-11-13T00:20:42.933Z,11.46
2022-11-13T00:22:03.309Z,11.46
2022-11-13T00:23:23.556Z,11.46
2022-11-13T00:24:43.722Z,11.46
2022-11-13T00:26:11.008Z,11.47
2022-11-13T00:27:31.296Z,11.45
2022-11-13T00:28:54.949Z,11.45
2022-11-13T00:30:19.294Z,11.44
2022-11-13T00:31:39.514Z,11.40
2022-11-13T00:32:59.610Z,11.39
2022-11-13T00:34:45.731Z,11.39
2022-11-13T00:36:03.585Z,11.42
2022-11-13T00:37:23.733Z,11.41
2022-11-13T00:38:43.616Z,11.40
2022-11-13T00:40:04.899Z,11.36
2022-11-13T00:41:25.155Z,11.36
2022-11-13T00:42:45.280Z,11.34
2022-11-13T00:44:05.293Z,11.36
2022-11-13T00:45:25.429Z,11.31
2022-11-13T00:46:45.567Z,11.33
2022-11-13T00:48:05.993Z,11.32
2022-11-13T00:49:26.050Z,11.31
2022-11-13T00:50:46.311Z,11.31
2022-11-13T00:52:06.525Z,11.33
2022-11-13T00:53:26.566Z,11.29
2022-11-13T00:54:46.601Z,11.28
2022-11-13T00:56:06.770Z,11.27
2022-11-13T00:57:26.795Z,11.28
2022-11-13T00:58:47.069Z,11.29
2022-11-13T01:00:07.247Z,11.28
2022-11-13T01:01:27.425Z,11.28
2022-11-13T01:02:47.553Z,11.27
2022-11-13T01:04:07.646Z,11.27
2022-11-13T01:05:27.659Z,11.25
2022-11-13T01:06:47.772Z,11.26
2022-11-13T01:08:07.915Z,11.26
2022-11-13T01:09:27.835Z,11.26
2022-11-13T01:10:53.470Z,11.26
2022-11-13T01:12:13.726Z,11.24
2022-11-13T01:13:33.642Z,11.22
2022-11-13T01:14:53.784Z,11.23
2022-11-13T01:16:14.155Z,11.20
2022-11-13T01:17:34.573Z,11.16
2022-11-13T01:18:55.354Z,11.13
2022-11-13T01:20:15.489Z,11.12
2022-11-13T01:21:35.511Z,11.00
2022-11-13T01:22:55.595Z,11.11
2022-11-13T01:24:15.850Z,11.13
2022-11-13T01:25:35.909Z,11.13
2022-11-13T01:26:55.999Z,11.09
2022-11-13T01:28:16.269Z,11.10
2022-11-13T01:29:37.367Z,11.10
2022-11-13T01:30:57.137Z,11.10
2022-11-13T01:32:17.190Z,11.11
2022-11-13T01:33:37.055Z,11.12
2022-11-13T01:34:57.252Z,11.11
2022-11-13T01:36:21.216Z,11.08
2022-11-13T01:37:41.040Z,11.08
2022-11-13T01:39:01.259Z,11.07
2022-11-13T01:40:21.325Z,11.07
2022-11-13T01:41:41.520Z,11.05
2022-11-13T01:43:11.806Z,11.06
2022-11-13T01:44:47.301Z,11.04
2022-11-13T01:46:08.716Z,11.04
2022-11-13T01:47:28.905Z,11.05
2022-11-13T01:48:53.371Z,11.06
2022-11-13T01:50:14.230Z,11.06
2022-11-13T01:51:35.486Z,11.05
2022-11-13T01:52:55.732Z,11.05
2022-11-13T01:54:17.177Z,11.07
2022-11-13T01:55:37.435Z,11.08
2022-11-13T01:56:57.692Z,11.09
2022-11-13T01:58:17.820Z,11.07
2022-11-13T01:59:38.945Z,11.08
2022-11-13T02:00:59.182Z,11.06
2022-11-13T02:02:19.222Z,11.07
2022-11-13T02:03:39.072Z,11.07
2022-11-13T02:04:59.273Z,11.06
2022-11-13T02:06:19.757Z,11.05
2022-11-13T02:07:39.671Z,11.04
2022-11-13T02:08:59.879Z,11.01
2022-11-13T02:10:19.979Z,10.90
2022-11-13T02:11:40.050Z,11.00
2022-11-13T02:13:00.279Z,11.02
2022-11-13T02:14:20.638Z,11.01
2022-11-13T02:15:40.870Z,10.99
2022-11-13T02:17:01.998Z,10.99
2022-11-13T02:18:22.048Z,10.97
2022-11-13T02:19:45.630Z,10.97
2022-11-13T02:21:09.356Z,10.98
2022-11-13T02:22:32.213Z,10.97
2022-11-13T02:24:11.030Z,10.99
2022-11-13T02:25:30.867Z,10.98
2022-11-13T02:26:51.100Z,10.99
2022-11-13T02:28:11.198Z,10.97
2022-11-13T02:29:31.454Z,10.96
2022-11-13T02:30:51.295Z,10.95
2022-11-13T02:32:11.113Z,10.95
2022-11-13T02:33:31.491Z,10.96
2022-11-13T02:34:51.814Z,10.93
2022-11-13T02:36:12.189Z,10.92
2022-11-13T02:37:32.328Z,10.93
2022-11-13T02:38:52.553Z,10.95
2022-11-13T02:40:12.332Z,10.96
2022-11-13T02:41:32.565Z,10.96
2022-11-13T02:42:52.629Z,10.97
2022-11-13T02:44:12.910Z,10.97
2022-11-13T02:45:33.027Z,10.98
2022-11-13T02:46:53.308Z,10.99
2022-11-13T02:48:13.214Z,10.95
2022-11-13T02:49:33.136Z,10.93
2022-11-13T02:50:53.561Z,10.89
2022-11-13T02:52:13.723Z,10.90
2022-11-13T02:53:34.007Z,10.88
2022-11-13T02:54:54.343Z,10.90
2022-11-13T02:56:14.554Z,10.90
2022-11-13T02:57:34.336Z,10.92
2022-11-13T02:58:54.711Z,10.93
2022-11-13T03:00:15.012Z,10.92
2022-11-13T03:01:35.127Z,10.94
2022-11-13T03:02:55.884Z,10.95
2022-11-13T03:04:15.841Z,10.92
2022-11-13T03:05:35.636Z,10.91
2022-11-13T03:06:55.877Z,10.91
2022-11-13T03:08:16.150Z,10.89
2022-11-13T03:09:36.115Z,10.85
2022-11-13T03:10:56.260Z,10.82
2022-11-13T03:12:16.211Z,10.81
2022-11-13T03:13:36.745Z,10.77
2022-11-13T03:14:56.932Z,10.77
2022-11-13T03:16:16.938Z,10.78
2022-11-13T03:17:37.037Z,10.76
2022-11-13T03:18:57.384Z,10.71
2022-11-13T03:20:17.592Z,10.74
2022-11-13T03:21:37.398Z,10.77
2022-11-13T03:22:57.480Z,10.81
2022-11-13T03:24:18.103Z,10.82
2022-11-13T03:25:38.327Z,10.85
2022-11-13T03:26:58.626Z,10.83
2022-11-13T03:28:18.550Z,10.83
2022-11-13T03:29:38.806Z,10.82
2022-11-13T03:30:58.933Z,10.81
2022-11-13T03:32:18.967Z,10.80
2022-11-13T03:33:39.127Z,10.79
2022-11-13T03:34:59.198Z,10.76
2022-11-13T03:36:19.472Z,10.75
2022-11-13T03:37:39.695Z,10.76
2022-11-13T03:38:59.686Z,10.71
2022-11-13T03:40:19.818Z,10.72
2022-11-13T03:41:39.873Z,10.73
2022-11-13T03:42:59.920Z,10.72
2022-11-13T03:44:20.005Z,10.69
2022-11-13T03:45:40.174Z,10.68
2022-11-13T03:47:00.336Z,10.69
2022-11-13T03:48:20.312Z,10.70
2022-11-13T03:49:40.506Z,10.71
2022-11-13T03:51:00.706Z,10.73
2022-11-13T03:52:20.945Z,10.75
2022-11-13T03:53:40.969Z,10.76
2022-11-13T03:55:00.833Z,10.77
2022-11-13T03:56:20.942Z,10.79
2022-11-13T03:57:41.124Z,10.81
2022-11-13T03:59:01.329Z,10.78
2022-11-13T04:00:21.508Z,10.73
2022-11-13T04:01:41.508Z,10.68
2022-11-13T04:03:01.587Z,10.68
2022-11-13T04:04:21.416Z,10.70
2022-11-13T04:05:42.087Z,10.69
2022-11-13T04:07:02.888Z,10.66
2022-11-13T04:08:22.840Z,10.66
2022-11-13T04:09:43.038Z,10.64
2022-11-13T04:11:06.884Z,10.63
2022-11-13T04:12:26.829Z,10.56
2022-11-13T04:13:46.926Z,10.56
2022-11-13T04:15:07.193Z,10.56
2022-11-13T04:16:30.210Z,10.55
2022-11-13T04:17:50.141Z,10.50
2022-11-13T04:19:10.351Z,10.52
2022-11-13T04:20:30.554Z,10.51
2022-11-13T04:21:50.414Z,10.53
2022-11-13T04:23:12.684Z,10.54
2022-11-13T04:24:32.866Z,10.56
2022-11-13T04:25:53.007Z,10.58
2022-11-13T04:27:12.946Z,10.59
2022-11-13T04:28:33.001Z,10.61
2022-11-13T04:29:52.986Z,10.65
2022-11-13T04:31:13.238Z,10.64
2022-11-13T04:32:33.452Z,10.65
2022-11-13T04:33:53.608Z,10.66
2022-11-13T04:35:13.930Z,10.67
2022-11-13T04:36:33.992Z,10.67
2022-11-13T04:37:54.246Z,10.65
2022-11-13T04:39:14.341Z,10.64
2022-11-13T04:40:34.397Z,10.64
2022-11-13T04:42:13.144Z,10.62
2022-11-13T04:43:33.240Z,10.59
2022-11-13T04:44:53.483Z,10.60
2022-11-13T04:46:13.794Z,10.58
2022-11-13T04:47:33.901Z,10.59
2022-11-13T04:48:53.996Z,10.61
2022-11-13T04:50:14.810Z,10.61
2022-11-13T04:51:34.984Z,10.59
2022-11-13T04:52:55.226Z,10.56
2022-11-13T04:54:15.139Z,10.55
2022-11-13T04:55:39.020Z,10.58
2022-11-13T04:56:59.225Z,10.61
2022-11-13T04:58:19.317Z,10.62
2022-11-13T04:59:39.683Z,10.62
2022-11-13T05:00:59.997Z,10.63
2022-11-13T05:02:20.446Z,10.64
2022-11-13T05:03:40.603Z,10.64
2022-11-13T05:05:04.896Z,10.64
2022-11-13T05:06:25.470Z,10.66
2022-11-13T05:07:45.682Z,10.67
2022-11-13T05:09:05.864Z,10.64
2022-11-13T05:10:25.790Z,10.66
2022-11-13T05:11:46.164Z,10.67
2022-11-13T05:13:06.408Z,10.68
2022-11-13T05:14:26.392Z,10.69
2022-11-13T05:15:46.728Z,10.69
2022-11-13T05:17:06.857Z,10.69
2022-11-13T05:18:27.345Z,10.69
2022-11-13T05:19:47.703Z,10.69
2022-11-13T05:21:07.806Z,10.69
2022-11-13T05:22:27.882Z,10.67
2022-11-13T05:23:47.886Z,10.66
2022-11-13T05:25:08.384Z,10.66
2022-11-13T05:26:28.883Z,10.64
2022-11-13T05:27:48.865Z,10.64
2022-11-13T05:29:08.905Z,10.64
2022-11-13T05:30:28.810Z,10.65
2022-11-13T05:31:49.021Z,10.65
2022-11-13T05:33:09.045Z,10.59
2022-11-13T05:34:28.831Z,10.59
2022-11-13T05:35:48.997Z,10.58
2022-11-13T05:37:09.252Z,10.59
2022-11-13T05:38:30.044Z,10.59
2022-11-13T05:39:50.148Z,10.54
2022-11-13T05:41:15.869Z,10.55
2022-11-13T05:42:36.039Z,10.57
2022-11-13T05:43:59.557Z,10.57
2022-11-13T05:45:20.128Z,10.52
2022-11-13T05:46:40.198Z,10.54
2022-11-13T05:48:00.244Z,10.54
2022-11-13T05:49:20.361Z,10.53
2022-11-13T05:50:40.300Z,10.48
2022-11-13T05:52:00.538Z,10.47
2022-11-13T05:53:20.715Z,10.48
2022-11-13T05:54:40.829Z,10.48
2022-11-13T05:56:01.704Z,10.45
2022-11-13T05:57:21.706Z,10.39
2022-11-13T05:58:41.971Z,10.40
2022-11-13T06:00:01.987Z,10.41
2022-11-13T06:01:22.885Z,10.43
2022-11-13T06:02:42.927Z,10.44
2022-11-13T06:04:03.194Z,10.46
2022-11-13T06:05:23.374Z,10.47
2022-11-13T06:06:43.679Z,10.46
2022-11-13T06:08:03.631Z,10.47
2022-11-13T06:09:23.883Z,10.47
2022-11-13T06:10:44.116Z,10.42
2022-11-13T06:12:04.390Z,10.44
2022-11-13T06:13:24.360Z,10.44
2022-11-13T06:14:44.609Z,10.40
2022-11-13T06:16:05.982Z,10.38
2022-11-13T06:17:25.876Z,10.34
2022-11-13T06:18:46.036Z,10.34
2022-11-13T06:20:06.094Z,10.37
2022-11-13T06:21:27.491Z,10.38
2022-11-13T06:22:47.512Z,10.39
2022-11-13T06:24:08.174Z,10.37
2022-11-13T06:25:28.302Z,10.38
2022-11-13T06:26:48.288Z,10.36
2022-11-13T06:28:08.627Z,10.37
2022-11-13T06:29:28.549Z,10.38
2022-11-13T06:30:48.730Z,10.37
2022-11-13T06:32:08.752Z,10.38
2022-11-13T06:33:28.651Z,10.40
2022-11-13T06:34:48.530Z,10.41
2022-11-13T06:36:10.393Z,10.41
2022-11-13T06:37:34.515Z,10.42
2022-11-13T06:38:54.851Z,10.42
2022-11-13T06:40:15.214Z,10.39
2022-11-13T06:41:35.487Z,10.39
2022-11-13T06:42:55.640Z,10.40
2022-11-13T06:44:15.642Z,10.32
2022-11-13T06:45:35.591Z,10.42
2022-11-13T06:46:55.801Z,10.42
2022-11-13T06:48:16.166Z,10.45
2022-11-13T06:49:36.399Z,10.45
2022-11-13T06:50:59.963Z,10.46
2022-11-13T06:52:20.044Z,10.48
2022-11-13T06:53:40.098Z,10.47
2022-11-13T06:55:01.462Z,10.48
2022-11-13T06:56:21.491Z,10.47
2022-11-13T06:57:41.487Z,10.47
2022-11-13T06:59:04.045Z,10.47
2022-11-13T07:00:32.260Z,10.47
2022-11-13T07:01:55.481Z,10.48
2022-11-13T07:03:16.242Z,10.45
2022-11-13T07:04:36.498Z,10.44
2022-11-13T07:05:56.675Z,10.43
2022-11-13T07:07:16.708Z,10.42
2022-11-13T07:08:37.214Z,10.39
2022-11-13T07:09:57.583Z,10.38
2022-11-13T07:11:18.582Z,10.40
2022-11-13T07:12:38.901Z,10.39
2022-11-13T07:13:58.851Z,10.40
2022-11-13T07:15:19.414Z,10.39
2022-11-13T07:17:07.349Z,10.39
2022-11-13T07:18:23.840Z,10.38
2022-11-13T07:19:44.853Z,10.39
2022-11-13T07:21:06.367Z,10.37
2022-11-13T07:22:27.876Z,10.36
2022-11-13T07:24:16.914Z,10.35
2022-11-13T07:25:37.289Z,10.32
2022-11-13T07:26:57.285Z,10.29
2022-11-13T07:28:17.462Z,10.29
2022-11-13T07:29:39.091Z,10.30
2022-11-13T07:30:59.303Z,10.30
2022-11-13T07:32:19.516Z,10.34
2022-11-13T07:33:39.648Z,10.41
2022-11-13T07:34:59.599Z,10.52
2022-11-13T07:36:19.659Z,10.58
2022-11-13T07:37:39.841Z,10.70
2022-11-13T07:39:00.444Z,10.81
2022-11-13T07:40:20.539Z,10.92
2022-11-13T07:41:40.661Z,11.00
2022-11-13T07:43:01.109Z,11.09
2022-11-13T07:44:47.697Z,11.17
2022-11-13T07:46:01.601Z,11.24
2022-11-13T07:47:21.900Z,11.27
2022-11-13T07:48:42.138Z,11.36
2022-11-13T07:50:07.023Z,11.41
2022-11-13T07:51:30.582Z,11.46
2022-11-13T07:52:54.694Z,11.49
2022-11-13T07:54:14.857Z,11.53
2022-11-13T07:55:35.307Z,11.55
2022-11-13T07:56:55.355Z,11.56
2022-11-13T07:58:15.328Z,11.57
2022-11-13T07:59:35.470Z,11.57
2022-11-13T08:00:55.814Z,11.57
2022-11-13T08:02:16.288Z,11.58
2022-11-13T08:03:36.546Z,11.59
2022-11-13T08:04:56.722Z,11.62
2022-11-13T08:06:16.786Z,11.63
2022-11-13T08:07:36.656Z,11.66
2022-11-13T08:08:56.785Z,11.69
2022-11-13T08:10:16.795Z,11.70
2022-11-13T08:11:37.078Z,11.74
2022-11-13T08:13:00.980Z,11.75
2022-11-13T08:14:20.853Z,11.81
2022-11-13T08:15:40.846Z,11.86
2022-11-13T08:17:01.075Z,11.94
2022-11-13T08:18:21.348Z,12.03
2022-11-13T08:19:41.576Z,12.16
2022-11-13T08:21:02.625Z,12.28
2022-11-13T08:22:22.772Z,12.46
2022-11-13T08:23:42.918Z,12.63
2022-11-13T08:25:02.962Z,12.81
2022-11-13T08:26:23.187Z,13.01
2022-11-13T08:27:43.234Z,13.21
2022-11-13T08:29:03.164Z,13.38
2022-11-13T08:30:23.517Z,13.55
2022-11-13T08:31:43.334Z,13.73
2022-11-13T08:33:03.459Z,13.94
2022-11-13T08:34:23.308Z,14.16
2022-11-13T08:35:43.400Z,14.38
2022-11-13T08:37:03.439Z,14.58
2022-11-13T08:38:23.702Z,14.82
2022-11-13T08:39:43.843Z,15.00
2022-11-13T08:41:09.012Z,15.21
2022-11-13T08:42:29.825Z,15.43
2022-11-13T08:43:50.062Z,15.57
2022-11-13T08:45:10.454Z,15.75
2022-11-13T08:46:30.479Z,15.91
2022-11-13T08:47:50.542Z,16.05
2022-11-13T08:49:12.064Z,16.16
2022-11-13T08:50:32.464Z,16.29
2022-11-13T08:51:52.339Z,16.42
2022-11-13T08:53:12.320Z,16.54
2022-11-13T08:54:32.646Z,16.77
2022-11-13T08:55:52.806Z,17.00
2022-11-13T08:57:13.174Z,17.15
2022-11-13T08:58:33.165Z,17.26
2022-11-13T08:59:53.371Z,17.38
2022-11-13T09:01:13.541Z,17.57
2022-11-13T09:02:33.649Z,17.79
2022-11-13T09:03:53.724Z,18.01
2022-11-13T09:05:14.241Z,18.06
2022-11-13T09:06:34.162Z,18.21
2022-11-13T09:07:58.220Z,18.34
2022-11-13T09:09:18.399Z,18.44
2022-11-13T09:10:38.385Z,18.60
2022-11-13T09:11:58.645Z,18.76
2022-11-13T09:13:18.890Z,18.90
2022-11-13T09:14:39.110Z,19.13
2022-11-13T09:15:59.834Z,19.32
2022-11-13T09:17:20.049Z,19.41
2022-11-13T09:18:40.079Z,19.44
2022-11-13T09:20:04.022Z,19.58
2022-11-13T09:21:24.966Z,19.66
2022-11-13T09:22:45.148Z,19.78
2022-11-13T09:24:06.436Z,19.88
2022-11-13T09:25:26.474Z,20.01
2022-11-13T09:26:46.383Z,20.09
2022-11-13T09:28:06.530Z,20.14
2022-11-13T09:29:28.518Z,20.17
2022-11-13T09:30:48.604Z,20.19
2022-11-13T09:32:08.591Z,20.26
2022-11-13T09:33:28.744Z,20.34
2022-11-13T09:34:48.821Z,20.45
2022-11-13T09:36:12.144Z,20.51
2022-11-13T09:37:32.647Z,20.61
2022-11-13T09:38:52.486Z,20.69
2022-11-13T09:40:14.908Z,20.75
2022-11-13T09:41:42.106Z,20.86
2022-11-13T09:43:02.855Z,20.94
2022-11-13T09:44:39.140Z,21.17
2022-11-13T09:46:06.280Z,21.27
2022-11-13T09:47:26.233Z,21.35
2022-11-13T09:48:51.056Z,21.43
2022-11-13T09:50:18.084Z,21.54
2022-11-13T09:51:38.530Z,21.68
2022-11-13T09:52:58.474Z,21.85
2022-11-13T09:54:18.427Z,21.93
2022-11-13T09:55:40.441Z,22.08
2022-11-13T09:57:04.964Z,22.20
2022-11-13T09:58:31.067Z,22.22
2022-11-13T09:59:57.195Z,22.27
2022-11-13T10:01:25.715Z,22.43
2022-11-13T10:02:51.831Z,22.70
2022-11-13T10:04:14.371Z,22.72
2022-11-13T10:05:53.646Z,22.68
2022-11-13T10:07:25.478Z,22.77
2022-11-13T10:08:45.304Z,22.91
2022-11-13T10:10:13.922Z,22.99
2022-11-13T10:11:37.962Z,23.18
2022-11-13T10:12:58.517Z,23.37
2022-11-13T10:14:23.686Z,23.37
2022-11-13T10:15:43.850Z,23.54
2022-11-13T10:17:08.544Z,23.67
2022-11-13T10:18:33.574Z,23.66
2022-11-13T10:19:58.341Z,23.70
2022-11-13T10:21:21.646Z,23.66
2022-11-13T10:22:43.018Z,23.68
2022-11-13T10:24:04.641Z,23.58
2022-11-13T10:25:32.246Z,23.73
2022-11-13T10:26:53.527Z,23.91
2022-11-13T10:28:50.154Z,24.10
2022-11-13T10:30:00.954Z,24.31
2022-11-13T10:31:21.047Z,24.48
2022-11-13T10:32:41.361Z,24.56
2022-11-13T10:34:01.462Z,24.54
2022-11-13T10:35:21.535Z,24.57
2022-11-13T10:36:49.663Z,24.59
2022-11-13T10:38:15.157Z,24.62
2022-11-13T10:39:41.877Z,24.51
2022-11-13T10:41:28.146Z,24.54
2022-11-13T10:42:48.126Z,24.59
2022-11-13T10:44:18.367Z,24.56
2022-11-13T10:45:38.212Z,24.58
2022-11-13T10:47:56.790Z,24.54
2022-11-13T10:49:31.395Z,24.62
2022-11-13T10:51:14.167Z,24.70
2022-11-13T10:52:34.787Z,24.70
2022-11-13T10:53:54.818Z,24.71
2022-11-13T10:55:22.773Z,24.62
2022-11-13T10:56:42.798Z,24.63
2022-11-13T10:58:03.901Z,24.42
2022-11-13T10:59:25.422Z,24.21
2022-11-13T11:00:48.979Z,24.03
2022-11-13T11:02:12.111Z,23.81
2022-11-13T11:03:32.043Z,23.77
2022-11-13T11:05:01.922Z,23.68
2022-11-13T11:06:56.433Z,23.60
2022-11-13T11:08:11.038Z,23.44
2022-11-13T11:09:31.795Z,23.30
2022-11-13T11:11:20.107Z,23.01
2022-11-13T11:12:40.137Z,22.76
2022-11-13T11:14:19.002Z,22.60
2022-11-13T11:15:41.357Z,22.39
2022-11-13T11:17:01.383Z,22.31
2022-11-13T11:18:25.512Z,22.27
2022-11-13T11:19:47.015Z,22.16
2022-11-13T11:21:08.671Z,22.18
2022-11-13T11:22:29.941Z,22.13
2022-11-13T11:23:56.470Z,22.13
2022-11-13T11:25:36.411Z,22.13
2022-11-13T11:27:05.257Z,22.04
2022-11-13T11:28:27.942Z,21.97
2022-11-13T11:29:49.270Z,21.97
2022-11-13T11:31:11.381Z,21.93
2022-11-13T11:32:31.419Z,21.95
2022-11-13T11:33:53.345Z,21.94
2022-11-13T11:35:24.488Z,21.88
2022-11-13T11:37:02.995Z,21.82
2022-11-13T11:38:27.095Z,21.79
2022-11-13T11:39:49.338Z,21.70
2022-11-13T11:41:16.246Z,21.63
2022-11-13T11:42:47.734Z,21.62
2022-11-13T11:44:34.023Z,21.60
2022-11-13T11:45:54.213Z,21.57
2022-11-13T11:47:14.845Z,21.60
2022-11-13T11:48:34.770Z,21.58
2022-11-13T11:49:54.785Z,21.53
2022-11-13T11:51:27.076Z,21.55
2022-11-13T11:52:52.693Z,21.62
2022-11-13T11:54:21.001Z,21.62
2022-11-13T11:55:40.823Z,21.64
2022-11-13T11:57:05.671Z,21.68
2022-11-13T11:58:32.068Z,21.69
2022-11-13T12:00:01.839Z,21.63
2022-11-13T12:01:30.977Z,21.63
2022-11-13T12:02:53.732Z,21.64
2022-11-13T12:04:22.663Z,21.64
2022-11-13T12:05:50.122Z,21.61
2022-11-13T12:07:28.975Z,21.61
2022-11-13T12:08:55.236Z,21.61
2022-11-13T12:10:20.928Z,21.61
2022-11-13T12:11:47.585Z,21.62
2022-11-13T12:13:16.669Z,21.60
2022-11-13T12:14:36.475Z,21.54
2022-11-13T12:16:12.010Z,21.43
2022-11-13T12:17:44.035Z,21.38
2022-11-13T12:19:23.288Z,21.35
2022-11-13T12:20:49.589Z,21.34
2022-11-13T12:22:21.733Z,21.34
2022-11-13T12:24:01.667Z,21.35
2022-11-13T12:25:26.575Z,21.30
2022-11-13T12:26:48.300Z,21.24
2022-11-13T12:28:14.354Z,21.23
2022-11-13T12:29:49.510Z,21.27
2022-11-13T12:31:28.287Z,21.28
2022-11-13T12:33:03.700Z,21.23
2022-11-13T12:34:23.517Z,21.24
2022-11-13T12:35:44.909Z,21.25
2022-11-13T12:37:12.217Z,21.26
2022-11-13T12:38:32.350Z,21.28
2022-11-13T12:40:00.418Z,21.31
2022-11-13T12:41:23.289Z,21.29
2022-11-13T12:42:46.145Z,21.28
2022-11-13T12:44:24.929Z,21.27
2022-11-13T12:45:52.199Z,21.27
2022-11-13T12:47:12.285Z,21.24
2022-11-13T12:48:33.756Z,21.22
2022-11-13T12:50:00.749Z,21.19
2022-11-13T12:51:21.031Z,21.17
2022-11-13T12:52:40.949Z,21.16
2022-11-13T12:54:00.729Z,21.19
2022-11-13T12:55:27.487Z,21.19
2022-11-13T12:56:48.177Z,21.20
2022-11-13T12:58:17.737Z,21.18
2022-11-13T12:59:39.304Z,21.17
2022-11-13T13:01:03.676Z,21.19
2022-11-13T13:02:26.761Z,21.20
2022-11-13T13:03:57.005Z,21.18
2022-11-13T13:05:21.606Z,21.19
2022-11-13T13:07:00.477Z,21.20
2022-11-13T13:08:26.494Z,21.22
2022-11-13T13:10:10.050Z,21.23
2022-11-13T13:11:42.439Z,21.23
2022-11-13T13:13:09.109Z,21.12
2022-11-13T13:14:33.337Z,21.19
2022-11-13T13:15:54.213Z,21.19
2022-11-13T13:17:14.455Z,21.20
2022-11-13T13:18:35.539Z,21.21
2022-11-13T13:20:04.119Z,21.23
2022-11-13T13:21:24.067Z,21.23
2022-11-13T13:22:54.322Z,21.20
2022-11-13T13:24:33.444Z,21.19
2022-11-13T13:26:01.580Z,21.16
2022-11-13T13:27:22.484Z,21.11
2022-11-13T13:28:43.572Z,21.08
2022-11-13T13:30:20.128Z,21.07
2022-11-13T13:31:49.474Z,21.07
2022-11-13T13:33:12.506Z,21.07
2022-11-13T13:34:47.491Z,21.06
2022-11-13T13:36:10.434Z,21.04
2022-11-13T13:37:43.173Z,21.01
2022-11-13T13:39:22.052Z,20.98
2022-11-13T13:40:51.041Z,20.96
2022-11-13T13:42:17.293Z,20.95
2022-11-13T13:43:41.770Z,20.92
2022-11-13T13:45:01.761Z,20.91
2022-11-13T13:46:22.641Z,20.90
2022-11-13T13:47:43.861Z,20.90
2022-11-13T13:49:14.588Z,20.91
2022-11-13T13:50:36.774Z,20.92
2022-11-13T13:51:56.967Z,20.90
2022-11-13T13:53:22.795Z,20.90
2022-11-13T13:54:43.131Z,20.90
2022-11-13T13:56:03.065Z,20.90
2022-11-13T13:57:23.104Z,20.89
2022-11-13T13:58:43.343Z,20.87
2022-11-13T14:00:03.739Z,20.85
2022-11-13T14:01:30.844Z,20.85
2022-11-13T14:02:51.580Z,20.84
2022-11-13T14:04:15.066Z,20.82
2022-11-13T14:05:35.625Z,20.80
2022-11-13T14:06:56.732Z,20.78
2022-11-13T14:08:20.372Z,20.75
2022-11-13T14:09:40.586Z,20.71
2022-11-13T14:11:03.174Z,20.69
2022-11-13T14:12:23.391Z,20.69
2022-11-13T14:13:43.408Z,20.67
2022-11-13T14:15:04.112Z,20.66
2022-11-13T14:16:24.350Z,20.65
2022-11-13T14:17:44.816Z,20.63
2022-11-13T14:19:05.262Z,20.63
2022-11-13T14:20:25.431Z,20.61
2022-11-13T14:21:46.001Z,20.60
2022-11-13T14:23:05.895Z,20.60
2022-11-13T14:24:27.336Z,20.59
2022-11-13T14:25:47.411Z,20.58
2022-11-13T14:27:08.076Z,20.57
2022-11-13T14:28:28.610Z,20.56
2022-11-13T14:29:49.418Z,20.56
2022-11-13T14:31:10.829Z,20.56
2022-11-13T14:32:32.182Z,20.55
2022-11-13T14:33:52.100Z,20.55
2022-11-13T14:35:19.637Z,20.54
2022-11-13T14:36:40.818Z,20.52
2022-11-13T14:38:01.018Z,20.50
2022-11-13T14:39:25.267Z,20.47
2022-11-13T14:40:46.659Z,20.44
2022-11-13T14:42:06.882Z,20.39
2022-11-13T14:43:28.309Z,20.37
2022-11-13T14:44:48.726Z,20.35
2022-11-13T14:46:28.910Z,20.32
2022-11-13T14:47:58.778Z,20.28
2022-11-13T14:49:27.886Z,20.25
2022-11-13T14:50:51.288Z,20.23
2022-11-13T14:52:19.970Z,20.20
2022-11-13T14:53:40.079Z,20.16
2022-11-13T14:55:14.767Z,20.11
2022-11-13T14:56:37.037Z,20.06
2022-11-13T14:57:57.094Z,20.04
2022-11-13T14:59:24.326Z,19.98
2022-11-13T15:00:44.175Z,19.92
2022-11-13T15:02:04.421Z,19.89
2022-11-13T15:03:24.876Z,19.86
2022-11-13T15:04:45.075Z,19.79
2022-11-13T15:06:05.906Z,19.77
2022-11-13T15:07:28.655Z,19.74
2022-11-13T15:08:49.451Z,19.69
2022-11-13T15:10:11.529Z,19.67
2022-11-13T15:11:32.075Z,19.62
2022-11-13T15:12:52.430Z,19.59
2022-11-13T15:14:12.766Z,19.54
2022-11-13T15:15:32.685Z,19.48
2022-11-13T15:16:52.800Z,19.44
2022-11-13T15:18:14.410Z,19.38
2022-11-13T15:19:34.831Z,19.30
2022-11-13T15:20:54.944Z,19.24
2022-11-13T15:22:30.529Z,19.18
2022-11-13T15:23:50.469Z,19.11
2022-11-13T15:25:16.950Z,19.05
2022-11-13T15:26:36.691Z,18.99
2022-11-13T15:27:56.803Z,18.90
2022-11-13T15:29:17.083Z,18.87
2022-11-13T15:30:37.073Z,18.79
2022-11-13T15:31:57.733Z,18.74
2022-11-13T15:33:17.883Z,18.68
2022-11-13T15:34:38.150Z,18.64
2022-11-13T15:35:58.231Z,18.60
2022-11-13T15:37:18.223Z,18.54
2022-11-13T15:38:38.490Z,18.50
2022-11-13T15:39:58.414Z,18.46
2022-11-13T15:41:19.431Z,18.44
2022-11-13T15:42:39.275Z,18.31
2022-11-13T15:43:59.583Z,18.34
2022-11-13T15:45:19.574Z,18.29
2022-11-13T15:46:39.750Z,18.23
2022-11-13T15:47:59.831Z,18.21
2022-11-13T15:49:19.761Z,18.18
2022-11-13T15:50:39.607Z,18.14
2022-11-13T15:51:59.754Z,18.12
2022-11-13T15:53:19.990Z,18.08
2022-11-13T15:54:40.183Z,18.03
2022-11-13T15:56:03.130Z,17.99
2022-11-13T15:57:24.057Z,17.92
2022-11-13T15:58:44.247Z,17.85
2022-11-13T16:00:04.324Z,17.78
2022-11-13T16:01:24.551Z,17.71
2022-11-13T16:02:50.341Z,17.67
2022-11-13T16:04:12.951Z,17.62
2022-11-13T16:05:33.107Z,17.59
2022-11-13T16:06:53.512Z,17.51
2022-11-13T16:08:13.846Z,17.48
2022-11-13T16:09:33.830Z,17.42
2022-11-13T16:10:55.043Z,17.39
2022-11-13T16:12:15.187Z,17.35
2022-11-13T16:13:35.376Z,17.30
2022-11-13T16:14:55.634Z,17.27
2022-11-13T16:16:20.203Z,17.21
2022-11-13T16:17:40.853Z,17.17
2022-11-13T16:19:01.659Z,17.12
2022-11-13T16:20:21.609Z,17.10
2022-11-13T16:21:41.820Z,17.07
2022-11-13T16:23:01.774Z,16.91
2022-11-13T16:24:24.285Z,17.01
2022-11-13T16:25:44.932Z,16.97
2022-11-13T16:27:05.029Z,16.94
2022-11-13T16:28:25.324Z,16.89
2022-11-13T16:29:45.619Z,16.83
2022-11-13T16:31:05.919Z,16.79
2022-11-13T16:32:26.103Z,16.75
2022-11-13T16:33:46.187Z,16.71
2022-11-13T16:35:06.514Z,16.67
2022-11-13T16:36:27.630Z,16.65
2022-11-13T16:37:47.983Z,16.61
2022-11-13T16:39:15.247Z,16.58
2022-11-13T16:40:35.739Z,16.53
2022-11-13T16:41:55.841Z,16.49
2022-11-13T16:43:16.766Z,16.45
2022-11-13T16:44:37.027Z,16.41
2022-11-13T16:45:58.634Z,16.37
2022-11-13T16:47:22.504Z,16.35
2022-11-13T16:48:42.596Z,16.33
2022-11-13T16:50:02.830Z,16.29
2022-11-13T16:51:23.231Z,16.26
2022-11-13T16:52:43.390Z,16.22
2022-11-13T16:54:03.755Z,16.17
2022-11-13T16:55:24.174Z,16.13
2022-11-13T16:56:45.155Z,16.09
2022-11-13T16:58:05.373Z,16.07
2022-11-13T16:59:25.805Z,16.00
2022-11-13T17:00:45.819Z,15.96
2022-11-13T17:02:15.698Z,15.92
2022-11-13T17:03:35.847Z,15.89
2022-11-13T17:04:56.208Z,15.86
2022-11-13T17:06:16.504Z,15.83
2022-11-13T17:07:36.897Z,15.81
2022-11-13T17:08:58.529Z,15.78
2022-11-13T17:10:34.753Z,15.75
2022-11-13T17:11:55.195Z,15.70
2022-11-13T17:13:15.367Z,15.67
2022-11-13T17:14:35.762Z,15.65
2022-11-13T17:15:55.670Z,15.62
2022-11-13T17:17:15.712Z,15.57
2022-11-13T17:18:35.867Z,15.55
2022-11-13T17:19:56.042Z,15.51
2022-11-13T17:21:16.406Z,15.48
2022-11-13T17:22:36.433Z,15.44
2022-11-13T17:23:57.282Z,15.41
2022-11-13T17:25:17.440Z,15.38
2022-11-13T17:26:37.521Z,15.35
2022-11-13T17:27:57.642Z,15.31
2022-11-13T17:29:17.379Z,15.28
2022-11-13T17:30:37.377Z,15.23
2022-11-13T17:31:57.793Z,15.20
2022-11-13T17:33:17.786Z,15.17
2022-11-13T17:34:38.055Z,15.14
2022-11-13T17:35:58.204Z,15.11
2022-11-13T17:37:21.590Z,15.08
2022-11-13T17:38:44.385Z,15.07
2022-11-13T17:40:04.854Z,15.03